Hillcrest, Florida
Current Conditions -  °F | °C
As of 7:53 AM on Friday 24 Oct 2014 (Local Time) from KHWO Reporting Station
Light Rain Light Rain  
Wind Chill: 74°   Ceiling: 10000
Heat Index: 74°   Visibility: 10mi
Dew Point: 71°   Wind: 8mph
Humidity: 91%   Direction: 40°NE
Pressure: 29.86"   Gusts: NA
Location:  26.0179°N, 80.2031°W
Report Text: KHWO 241153Z 04007KT 10SM -RA FEW023 SCT035 OVC100 23/22 A2986 RMK AO2 SLP112 P0004 60010 70036 T02330217 10256 20233 52005
Loading
Personal Weather Stations






























Interactive Weather Map New forecast layout! Learn more

10-Day Weather Forecast

Advertisements
Track Severe Weather on mobile